createdAt,value
2018-09-25T00:00:57.102Z,102708.97
2018-09-25T00:03:30.645Z,102705.98
2018-09-25T00:06:04.168Z,102707.80
2018-09-25T00:08:37.768Z,102711.55
2018-09-25T00:11:11.571Z,102713.56
2018-09-25T00:13:45.052Z,102709.78
2018-09-25T00:16:18.502Z,102722.53
2018-09-25T00:18:52.598Z,102724.45
2018-09-25T00:21:26.130Z,102715.52
2018-09-25T00:23:59.574Z,102716.87
2018-09-25T00:26:33.096Z,102725.65
2018-09-25T00:29:06.738Z,102722.80
2018-09-25T00:31:40.436Z,102726.41
2018-09-25T00:34:14.012Z,102727.97
2018-09-25T00:36:47.613Z,102734.17
2018-09-25T00:39:21.882Z,102736.03
2018-09-25T00:41:55.330Z,102733.45
2018-09-25T00:44:33.094Z,102730.70
2018-09-25T00:47:06.819Z,102735.23
2018-09-25T00:49:40.446Z,102745.09
2018-09-25T00:52:13.923Z,102737.59
2018-09-25T00:54:47.565Z,102737.33
2018-09-25T00:57:20.996Z,102747.88
2018-09-25T00:59:54.662Z,102745.39
2018-09-25T01:02:28.216Z,102753.68
2018-09-25T01:05:01.920Z,102755.61
2018-09-25T01:07:36.075Z,102762.97
2018-09-25T01:10:09.944Z,102767.41
2018-09-25T01:12:43.446Z,102765.81
2018-09-25T01:15:17.470Z,102765.81
2018-09-25T01:17:51.220Z,102761.94
2018-09-25T01:20:30.637Z,102767.17
2018-09-25T01:23:04.897Z,102760.67
2018-09-25T01:25:38.982Z,102756.30
2018-09-25T01:28:12.773Z,102765.38
2018-09-25T01:30:46.350Z,102764.85
2018-09-25T01:33:19.918Z,102771.55
2018-09-25T01:35:53.448Z,102775.35
2018-09-25T01:41:10.787Z,102774.36
2018-09-25T01:43:44.358Z,102771.21
2018-09-25T01:46:18.302Z,102781.95
2018-09-25T01:48:52.048Z,102775.25
2018-09-25T01:51:25.498Z,102790.23
2018-09-25T01:54:03.393Z,102791.05
2018-09-25T01:56:38.468Z,102785.06
2018-09-25T01:59:12.208Z,102793.22
2018-09-25T02:01:45.863Z,102798.12
2018-09-25T02:04:19.861Z,102800.09
2018-09-25T02:06:53.326Z,102799.55
2018-09-25T02:09:27.130Z,102803.20
2018-09-25T02:12:00.627Z,102810.56
2018-09-25T02:14:41.121Z,102806.84
2018-09-25T02:17:14.843Z,102815.38
2018-09-25T02:19:48.400Z,102814.33
2018-09-25T02:22:22.513Z,102818.98
2018-09-25T02:24:56.274Z,102817.70
2018-09-25T02:27:29.820Z,102817.56
2018-09-25T02:30:03.322Z,102822.73
2018-09-25T02:32:37.050Z,102820.28
2018-09-25T02:35:10.526Z,102823.91
2018-09-25T02:37:44.137Z,102823.65
2018-09-25T02:40:17.724Z,102827.41
2018-09-25T02:42:51.449Z,102837.86
2018-09-25T02:45:25.056Z,102833.48
2018-09-25T02:47:58.530Z,102836.57
2018-09-25T02:50:31.979Z,102843.81
2018-09-25T02:53:05.526Z,102845.23
2018-09-25T02:55:39.172Z,102850.80
2018-09-25T02:58:12.749Z,102857.25
2018-09-25T03:00:46.239Z,102850.52
2018-09-25T03:03:19.871Z,102855.55
2018-09-25T03:05:53.331Z,102851.82
2018-09-25T03:08:26.870Z,102860.63
2018-09-25T03:11:00.520Z,102856.48
2018-09-25T03:13:34.049Z,102865.02
2018-09-25T03:16:07.746Z,102862.56
2018-09-25T03:18:41.251Z,102862.67
2018-09-25T03:21:14.859Z,102859.73
2018-09-25T03:23:48.488Z,102869.66
2018-09-25T03:26:21.871Z,102875.38
2018-09-25T03:28:55.354Z,102880.14
2018-09-25T03:31:28.934Z,102872.39
2018-09-25T03:34:02.556Z,102866.58
2018-09-25T03:36:35.970Z,102882.73
2018-09-25T03:39:12.407Z,102872.52
2018-09-25T03:41:45.892Z,102882.84
2018-09-25T03:44:19.606Z,102882.86
2018-09-25T03:46:53.083Z,102879.48
2018-09-25T03:49:27.084Z,102885.68
2018-09-25T03:52:00.588Z,102892.69
2018-09-25T03:54:34.152Z,102888.81
2018-09-25T03:57:07.813Z,102892.55
2018-09-25T03:59:41.330Z,102898.11
2018-09-25T04:02:14.913Z,102900.41
2018-09-25T04:04:48.449Z,102907.66
2018-09-25T04:07:22.070Z,102909.59
2018-09-25T04:09:55.622Z,102914.90
2018-09-25T04:12:29.194Z,102918.49
2018-09-25T04:15:02.939Z,102924.19
2018-09-25T04:17:36.514Z,102929.61
2018-09-25T04:20:10.088Z,102939.02
2018-09-25T04:22:43.562Z,102939.94
2018-09-25T04:25:17.096Z,102953.64
2018-09-25T04:27:50.720Z,102955.80
2018-09-25T04:30:24.357Z,102954.76
2018-09-25T04:32:58.020Z,102955.41
2018-09-25T04:35:31.528Z,102961.89
2018-09-25T04:38:05.072Z,102970.14
2018-09-25T04:40:38.709Z,102968.20
2018-09-25T04:43:12.144Z,102966.52
2018-09-25T04:45:45.576Z,102972.41
2018-09-25T04:48:19.144Z,102979.37
2018-09-25T04:50:52.874Z,102979.03
2018-09-25T04:53:26.568Z,102981.72
2018-09-25T04:56:00.334Z,102982.25
2018-09-25T04:58:33.804Z,102985.09
2018-09-25T05:01:07.332Z,102986.64
2018-09-25T05:03:40.933Z,102988.86
2018-09-25T05:06:14.438Z,102994.13
2018-09-25T05:08:47.939Z,102998.39
2018-09-25T05:11:22.223Z,102998.14
2018-09-25T05:13:55.775Z,102994.43
2018-09-25T05:16:29.250Z,103000.03
2018-09-25T05:19:02.766Z,103005.52
2018-09-25T05:21:36.425Z,103011.07
2018-09-25T05:24:09.991Z,103012.11
2018-09-25T05:26:44.142Z,103007.59
2018-09-25T05:29:17.806Z,103021.55
2018-09-25T05:31:51.424Z,103018.97
2018-09-25T05:34:25.003Z,103018.08
2018-09-25T05:36:58.506Z,103027.13
2018-09-25T05:39:31.984Z,103024.14
2018-09-25T05:42:07.164Z,103023.51
2018-09-25T05:44:40.748Z,103023.00
2018-09-25T05:47:14.234Z,103035.38
2018-09-25T05:49:49.286Z,103028.72
2018-09-25T05:52:23.060Z,103034.38
2018-09-25T05:54:56.604Z,103033.37
2018-09-25T05:57:30.310Z,103038.16
2018-09-25T06:00:10.042Z,103040.99
2018-09-25T06:02:43.692Z,103049.68
2018-09-25T06:05:18.262Z,103053.41
2018-09-25T06:07:52.243Z,103055.23
2018-09-25T06:10:25.873Z,103063.00
2018-09-25T06:12:59.421Z,103060.69
2018-09-25T06:15:33.398Z,103060.03
2018-09-25T06:18:07.110Z,103064.45
2018-09-25T06:20:40.792Z,103068.58
2018-09-25T06:23:14.609Z,103069.11
2018-09-25T06:25:48.663Z,103072.05
2018-09-25T06:28:22.122Z,103070.24
2018-09-25T06:30:55.603Z,103075.96
2018-09-25T06:33:29.177Z,103081.62
2018-09-25T06:36:02.651Z,103079.81
2018-09-25T06:38:36.175Z,103086.67
2018-09-25T06:41:09.891Z,103089.78
2018-09-25T06:43:43.471Z,103094.70
2018-09-25T06:46:17.011Z,103097.53
2018-09-25T06:48:50.747Z,103096.39
2018-09-25T06:51:24.305Z,103099.23
2018-09-25T07:01:07.485Z,103113.44
2018-09-25T07:03:41.220Z,103119.62
2018-09-25T07:06:15.329Z,103118.99
2018-09-25T07:08:49.305Z,103123.22
2018-09-25T07:11:22.799Z,103125.95
2018-09-25T07:13:56.454Z,103133.34
2018-09-25T07:16:30.088Z,103144.97
2018-09-25T07:19:03.941Z,103145.23
2018-09-25T07:21:37.540Z,103154.03
2018-09-25T07:24:12.144Z,103154.80
2018-09-25T07:26:45.640Z,103159.56
2018-09-25T07:29:19.454Z,103158.39
2018-09-25T07:31:53.014Z,103167.95
2018-09-25T07:34:26.721Z,103168.21
2018-09-25T07:37:00.333Z,103165.75
2018-09-25T07:39:33.895Z,103170.79
2018-09-25T07:42:07.597Z,103170.16
2018-09-25T07:44:42.001Z,103170.47
2018-09-25T07:47:15.678Z,103165.76
2018-09-25T07:49:49.514Z,103163.90
2018-09-25T07:52:23.056Z,103171.78
2018-09-25T07:54:56.616Z,103168.78
2018-09-25T07:57:30.272Z,103171.48
2018-09-25T08:00:03.756Z,103174.39
2018-09-25T08:02:37.523Z,103173.62
2018-09-25T08:05:11.427Z,103177.12
2018-09-25T08:07:45.106Z,103182.91
2018-09-25T08:10:18.727Z,103173.69
2018-09-25T08:12:52.204Z,103185.53
2018-09-25T08:15:25.762Z,103187.92
2018-09-25T08:17:59.403Z,103188.73
2018-09-25T08:20:33.350Z,103185.14
2018-09-25T08:23:07.118Z,103190.39
2018-09-25T08:25:40.624Z,103188.41
2018-09-25T08:28:14.186Z,103194.76
2018-09-25T08:30:47.850Z,103197.94
2018-09-25T08:33:21.415Z,103194.89
2018-09-25T08:35:55.029Z,103195.28
2018-09-25T08:38:28.697Z,103204.60
2018-09-25T08:41:03.189Z,103207.76
2018-09-25T08:43:36.680Z,103205.13
2018-09-25T08:46:10.274Z,103215.34
2018-09-25T08:48:43.853Z,103210.53
2018-09-25T08:51:17.762Z,103220.42
2018-09-25T08:53:51.312Z,103217.83
2018-09-25T08:56:24.837Z,103227.42
2018-09-25T08:58:58.380Z,103226.87
2018-09-25T09:01:32.070Z,103228.42
2018-09-25T09:04:05.562Z,103233.16
2018-09-25T09:06:39.088Z,103232.95
2018-09-25T09:09:14.536Z,103229.21
2018-09-25T09:11:48.864Z,103232.41
2018-09-25T09:14:22.422Z,103236.63
2018-09-25T09:16:56.196Z,103238.38
2018-09-25T09:19:29.614Z,103242.73
2018-09-25T09:22:03.073Z,103241.48
2018-09-25T09:24:36.596Z,103243.84
2018-09-25T09:27:10.278Z,103248.64
2018-09-25T09:29:43.803Z,103257.75
2018-09-25T09:32:17.524Z,103251.55
2018-09-25T09:34:52.304Z,103248.50
2018-09-25T09:37:26.690Z,103243.66
2018-09-25T09:40:00.411Z,103251.64
2018-09-25T09:42:34.131Z,103246.95
2018-09-25T09:45:07.622Z,103253.30
2018-09-25T09:47:41.298Z,103254.11
2018-09-25T09:50:15.077Z,103244.81
2018-09-25T09:52:48.709Z,103242.57
2018-09-25T09:55:22.490Z,103242.48
2018-09-25T09:57:56.402Z,103244.20
2018-09-25T10:00:30.028Z,103249.18
2018-09-25T10:03:04.341Z,103249.41
2018-09-25T10:05:37.786Z,103253.43
2018-09-25T10:08:11.316Z,103252.52
2018-09-25T10:10:44.963Z,103253.16
2018-09-25T10:13:19.251Z,103247.72
2018-09-25T10:15:52.980Z,103239.09
2018-09-25T10:18:26.553Z,103256.30
2018-09-25T10:21:00.298Z,103243.95
2018-09-25T10:23:34.000Z,103249.08
2018-09-25T10:26:07.462Z,103241.35
2018-09-25T10:28:40.987Z,103252.92
2018-09-25T10:31:14.342Z,103251.13
2018-09-25T10:33:47.961Z,103244.38
2018-09-25T10:36:21.567Z,103249.19
2018-09-25T10:38:55.102Z,103241.88
2018-09-25T10:41:28.782Z,103249.81
2018-09-25T10:44:02.393Z,103259.73
2018-09-25T10:46:36.157Z,103250.80
2018-09-25T10:49:09.772Z,103245.04
2018-09-25T10:51:43.605Z,103255.31
2018-09-25T10:54:21.537Z,103252.60
2018-09-25T10:56:55.183Z,103256.03
2018-09-25T10:59:29.385Z,103252.04
2018-09-25T11:02:02.996Z,103262.19
2018-09-25T11:04:36.596Z,103263.22
2018-09-25T11:07:10.013Z,103260.47
2018-09-25T11:09:43.612Z,103255.12
2018-09-25T11:12:17.046Z,103263.27
2018-09-25T11:14:50.542Z,103268.08
2018-09-25T11:17:24.134Z,103257.08
2018-09-25T11:19:57.687Z,103259.72
2018-09-25T11:22:31.574Z,103259.77
2018-09-25T11:25:05.245Z,103269.80
2018-09-25T11:27:38.814Z,103273.24
2018-09-25T11:30:12.717Z,103278.19
2018-09-25T11:35:28.224Z,103281.51
2018-09-25T11:38:02.282Z,103276.52
2018-09-25T11:40:35.928Z,103272.88
2018-09-25T11:43:09.731Z,103284.40
2018-09-25T11:45:43.220Z,103273.58
2018-09-25T11:48:16.870Z,103265.05
2018-09-25T11:50:50.747Z,103268.08
2018-09-25T11:53:24.536Z,103276.95
2018-09-25T11:55:58.088Z,103277.83
2018-09-25T11:58:31.810Z,103278.72
2018-09-25T12:01:05.475Z,103278.16
2018-09-25T12:03:39.212Z,103279.38
2018-09-25T12:06:12.918Z,103277.41
2018-09-25T12:08:46.688Z,103279.59
2018-09-25T12:11:20.269Z,103277.37
2018-09-25T12:13:54.708Z,103293.69
2018-09-25T12:16:28.328Z,103281.44
2018-09-25T12:19:02.020Z,103277.25
2018-09-25T12:21:35.871Z,103271.41
2018-09-25T12:24:09.391Z,103271.54
2018-09-25T12:26:45.819Z,103270.69
2018-09-25T12:29:20.596Z,103276.05
2018-09-25T12:31:54.911Z,103272.48
2018-09-25T12:34:29.457Z,103287.24
2018-09-25T12:37:03.638Z,103279.53
2018-09-25T12:39:37.134Z,103277.48
2018-09-25T12:42:10.748Z,103272.73
2018-09-25T12:44:45.087Z,103288.27
2018-09-25T12:47:19.062Z,103285.89
2018-09-25T12:49:52.646Z,103275.94
2018-09-25T12:52:26.151Z,103267.07
2018-09-25T12:54:59.787Z,103266.58
2018-09-25T12:57:33.271Z,103268.14
2018-09-25T13:00:06.822Z,103268.63
2018-09-25T13:02:40.396Z,103263.11
2018-09-25T13:05:14.148Z,103263.55
2018-09-25T13:07:47.804Z,103273.84
2018-09-25T13:10:21.475Z,103274.42
2018-09-25T13:12:55.898Z,103277.13
2018-09-25T13:15:31.315Z,103269.86
2018-09-25T13:18:08.834Z,103269.96
2018-09-25T13:20:42.336Z,103270.69
2018-09-25T13:23:15.869Z,103266.52
2018-09-25T13:25:49.378Z,103266.77
2018-09-25T13:28:23.063Z,103264.41
2018-09-25T13:30:56.678Z,103270.95
2018-09-25T13:33:30.235Z,103262.23
2018-09-25T13:36:04.796Z,103263.45
2018-09-25T13:38:38.422Z,103269.69
2018-09-25T13:41:12.049Z,103269.77
2018-09-25T13:43:45.573Z,103264.85
2018-09-25T13:46:19.922Z,103274.73
2018-09-25T13:48:53.426Z,103264.94
2018-09-25T13:51:27.185Z,103260.56
2018-09-25T14:01:10.709Z,103253.64
2018-09-25T14:03:44.433Z,103259.13
2018-09-25T14:06:17.998Z,103254.57
2018-09-25T14:08:51.465Z,103245.84
2018-09-25T14:11:25.103Z,103243.64
2018-09-25T14:13:58.574Z,103240.91
2018-09-25T14:16:32.153Z,103245.03
2018-09-25T14:19:05.816Z,103228.12
2018-09-25T14:21:39.474Z,103228.15
2018-09-25T14:24:13.222Z,103220.07
2018-09-25T14:26:46.842Z,103215.47
2018-09-25T14:29:20.903Z,103223.25
2018-09-25T14:31:54.402Z,103225.88
2018-09-25T14:34:27.869Z,103227.85
2018-09-25T14:37:01.432Z,103221.51
2018-09-25T14:39:34.968Z,103221.00
2018-09-25T14:42:08.519Z,103231.32
2018-09-25T14:44:42.003Z,103237.74
2018-09-25T14:47:15.695Z,103242.55
2018-09-25T14:49:49.870Z,103245.12
2018-09-25T14:52:23.471Z,103243.41
2018-09-25T14:54:57.226Z,103243.02
2018-09-25T14:57:30.743Z,103237.95
2018-09-25T15:00:04.325Z,103232.84
2018-09-25T15:02:37.846Z,103235.46
2018-09-25T15:05:11.463Z,103234.54
2018-09-25T15:07:44.957Z,103229.01
2018-09-25T15:10:18.575Z,103227.70
2018-09-25T15:12:52.141Z,103230.05
2018-09-25T15:15:26.240Z,103231.97
2018-09-25T15:17:59.893Z,103227.39
2018-09-25T15:20:33.437Z,103225.33
2018-09-25T15:23:06.970Z,103221.00
2018-09-25T15:25:40.508Z,103228.01
2018-09-25T15:28:14.201Z,103232.36
2018-09-25T15:30:53.993Z,103234.80
2018-09-25T15:33:28.044Z,103241.25
2018-09-25T15:36:01.612Z,103248.62
2018-09-25T15:38:36.020Z,103242.68
2018-09-25T15:41:09.552Z,103252.63
2018-09-25T15:43:43.189Z,103248.33
2018-09-25T15:46:16.887Z,103245.62
2018-09-25T15:48:50.427Z,103245.62
2018-09-25T15:51:25.321Z,103252.45
2018-09-25T15:53:59.263Z,103249.05
2018-09-25T15:56:32.819Z,103252.97
2018-09-25T15:59:06.552Z,103248.95
2018-09-25T16:01:40.223Z,103254.89
2018-09-25T16:04:17.809Z,103259.09
2018-09-25T16:06:51.468Z,103263.80
2018-09-25T16:09:25.107Z,103269.08
2018-09-25T16:11:59.553Z,103270.16
2018-09-25T16:14:33.153Z,103277.33
2018-09-25T16:17:06.821Z,103284.23
2018-09-25T16:19:40.359Z,103278.83
2018-09-25T16:22:14.567Z,103278.93
2018-09-25T16:24:48.319Z,103275.73
2018-09-25T16:27:22.603Z,103271.56
2018-09-25T16:29:56.231Z,103268.58
2018-09-25T16:32:30.005Z,103265.55
2018-09-25T16:35:03.990Z,103262.23
2018-09-25T16:37:37.519Z,103264.66
2018-09-25T16:40:11.160Z,103264.85
2018-09-25T16:42:44.721Z,103265.75
2018-09-25T16:45:18.151Z,103263.47
2018-09-25T16:47:51.672Z,103269.39
2018-09-25T16:50:25.761Z,103261.66
2018-09-25T16:53:00.006Z,103261.03
2018-09-25T16:55:33.636Z,103261.55
2018-09-25T16:58:07.394Z,103276.48
2018-09-25T17:00:41.810Z,103285.68
2018-09-25T17:03:16.065Z,103294.45
2018-09-25T17:05:50.663Z,103290.21
2018-09-25T17:08:24.425Z,103293.24
2018-09-25T17:10:58.358Z,103299.95
2018-09-25T17:13:32.453Z,103303.60
2018-09-25T17:16:06.651Z,103310.19
2018-09-25T17:18:40.325Z,103309.72
2018-09-25T17:21:13.809Z,103305.66
2018-09-25T17:23:47.982Z,103301.73
2018-09-25T17:26:21.629Z,103306.19
2018-09-25T17:28:55.365Z,103302.60
2018-09-25T17:31:29.095Z,103303.27
2018-09-25T17:34:02.776Z,103301.70
2018-09-25T17:36:36.370Z,103305.27
2018-09-25T17:39:12.894Z,103311.49
2018-09-25T17:41:46.801Z,103317.05
2018-09-25T17:44:20.293Z,103315.92
2018-09-25T17:46:54.150Z,103309.66
2018-09-25T17:49:27.847Z,103323.86
2018-09-25T17:52:01.408Z,103316.12
2018-09-25T17:54:34.953Z,103325.13
2018-09-25T17:57:08.717Z,103330.69
2018-09-25T17:59:42.552Z,103333.14
2018-09-25T18:02:16.225Z,103331.37
2018-09-25T18:04:50.032Z,103327.68
2018-09-25T18:07:23.840Z,103334.44
2018-09-25T18:09:57.640Z,103327.89
2018-09-25T18:12:31.355Z,103327.49
2018-09-25T18:15:05.017Z,103328.45
2018-09-25T18:17:39.385Z,103327.40
2018-09-25T18:20:13.084Z,103326.78
2018-09-25T18:22:46.726Z,103325.16
2018-09-25T18:25:20.382Z,103322.91
2018-09-25T18:27:54.056Z,103327.27
2018-09-25T18:30:27.786Z,103319.62
2018-09-25T18:33:01.362Z,103320.02
2018-09-25T18:35:35.094Z,103324.94
2018-09-25T18:38:08.968Z,103319.00
2018-09-25T18:40:42.960Z,103322.13
2018-09-25T18:43:16.629Z,103328.02
2018-09-25T18:45:50.534Z,103326.20
2018-09-25T18:48:24.372Z,103329.18
2018-09-25T18:51:02.254Z,103320.63
2018-09-25T18:53:36.859Z,103320.42
2018-09-25T18:56:10.478Z,103323.38
2018-09-25T18:58:43.959Z,103336.02
2018-09-25T19:01:17.455Z,103328.78
2018-09-25T19:03:52.814Z,103344.20
2018-09-25T19:06:28.226Z,103348.60
2018-09-25T19:09:01.954Z,103349.05
2018-09-25T19:11:35.471Z,103346.85
2018-09-25T19:14:09.274Z,103340.36
2018-09-25T19:16:42.967Z,103339.84
2018-09-25T19:19:16.652Z,103337.01
2018-09-25T19:21:50.486Z,103340.04
2018-09-25T19:24:24.831Z,103346.45
2018-09-25T19:26:58.662Z,103348.30
2018-09-25T19:29:32.420Z,103351.84
2018-09-25T19:32:06.112Z,103346.51
2018-09-25T19:34:39.969Z,103340.45
2018-09-25T19:37:13.870Z,103344.89
2018-09-25T19:40:02.525Z,103345.92
2018-09-25T19:42:36.286Z,103348.16
2018-09-25T19:45:13.952Z,103355.19
2018-09-25T19:47:47.533Z,103349.95
2018-09-25T19:50:21.113Z,103346.36
2018-09-25T19:52:57.012Z,103340.17
2018-09-25T19:55:31.381Z,103346.66
2018-09-25T19:58:04.972Z,103350.70
2018-09-25T20:00:39.269Z,103357.32
2018-09-25T20:03:13.020Z,103353.56
2018-09-25T20:05:46.872Z,103353.95
2018-09-25T20:08:20.494Z,103362.25
2018-09-25T20:10:54.053Z,103359.50
2018-09-25T20:13:28.074Z,103360.48
2018-09-25T20:16:03.548Z,103356.58
2018-09-25T20:18:37.305Z,103352.98
2018-09-25T20:21:11.445Z,103357.88
2018-09-25T20:23:45.898Z,103351.61
2018-09-25T20:26:19.617Z,103356.94
2018-09-25T20:28:53.325Z,103357.55
2018-09-25T20:31:29.519Z,103361.89
2018-09-25T20:34:03.317Z,103368.95
2018-09-25T20:36:36.955Z,103372.30
2018-09-25T20:39:11.414Z,103373.35
2018-09-25T20:41:45.188Z,103376.49
2018-09-25T20:44:19.014Z,103380.42
2018-09-25T20:46:52.717Z,103382.03
2018-09-25T20:49:26.444Z,103377.20
2018-09-25T20:52:01.313Z,103380.89
2018-09-25T20:54:34.930Z,103389.98
2018-09-25T20:57:09.660Z,103396.25
2018-09-25T20:59:43.372Z,103393.76
2018-09-25T21:02:17.142Z,103393.12
2018-09-25T21:04:51.585Z,103392.34
2018-09-25T21:07:25.375Z,103385.91
2018-09-25T21:09:58.918Z,103382.79
2018-09-25T21:12:32.555Z,103378.61
2018-09-25T21:15:07.469Z,103373.95
2018-09-25T21:17:41.280Z,103376.69
2018-09-25T21:20:14.890Z,103372.69
2018-09-25T21:22:48.767Z,103374.23
2018-09-25T21:25:22.328Z,103374.63
2018-09-25T21:27:56.118Z,103378.91
2018-09-25T21:30:29.655Z,103378.27
2018-09-25T21:33:03.162Z,103372.45
2018-09-25T21:35:36.725Z,103365.05
2018-09-25T21:38:10.538Z,103371.25
2018-09-25T21:40:44.009Z,103373.72
2018-09-25T21:43:17.834Z,103376.84
2018-09-25T21:45:51.468Z,103371.25
2018-09-25T21:48:25.086Z,103366.86
2018-09-25T21:50:58.919Z,103365.16
2018-09-25T21:53:32.518Z,103360.91
2018-09-25T21:56:06.066Z,103365.97
2018-09-25T21:58:39.676Z,103365.95
2018-09-25T22:01:13.393Z,103353.25
2018-09-25T22:03:46.885Z,103344.44
2018-09-25T22:06:20.375Z,103343.93
2018-09-25T22:08:54.011Z,103351.17
2018-09-25T22:11:27.542Z,103354.29
2018-09-25T22:14:01.148Z,103354.95
2018-09-25T22:16:34.573Z,103344.58
2018-09-25T22:19:08.285Z,103343.14
2018-09-25T22:21:41.912Z,103344.70
2018-09-25T22:24:15.389Z,103351.69
2018-09-25T22:26:48.878Z,103343.16
2018-09-25T22:29:22.575Z,103334.30
2018-09-25T22:31:56.086Z,103323.82
2018-09-25T22:34:35.144Z,103329.26
2018-09-25T22:37:09.024Z,103339.98
2018-09-25T22:39:42.586Z,103342.86
2018-09-25T22:42:16.174Z,103345.45
2018-09-25T22:44:49.790Z,103337.14
2018-09-25T22:47:26.032Z,103322.64
2018-09-25T22:49:59.664Z,103316.67
2018-09-25T22:52:33.311Z,103311.64
2018-09-25T22:55:06.896Z,103307.11
2018-09-25T22:57:40.393Z,103303.47
2018-09-25T23:00:14.683Z,103297.53
2018-09-25T23:02:48.190Z,103299.84
2018-09-25T23:05:21.664Z,103298.80
2018-09-25T23:07:55.334Z,103293.37
2018-09-25T23:10:28.878Z,103293.38
2018-09-25T23:13:02.479Z,103299.05
2018-09-25T23:15:35.964Z,103308.11
2018-09-25T23:18:09.511Z,103301.35
2018-09-25T23:20:42.981Z,103307.07
2018-09-25T23:23:16.647Z,103301.36
2018-09-25T23:25:50.245Z,103310.09
2018-09-25T23:28:23.975Z,103311.31
2018-09-25T23:30:58.065Z,103312.92
2018-09-25T23:33:32.005Z,103309.80
2018-09-25T23:36:05.661Z,103310.19
2018-09-25T23:38:39.329Z,103318.11
2018-09-25T23:41:16.781Z,103322.63
2018-09-25T23:44:04.988Z,103317.45
2018-09-25T23:47:43.295Z,103318.89
2018-09-25T23:50:21.855Z,103319.64
2018-09-25T23:52:54.203Z,103322.93
2018-09-25T23:55:27.607Z,103319.25
2018-09-25T23:58:02.271Z,103319.05
